createdAt,value
2023-02-25T00:00:26.357Z,95751.25
2023-02-25T00:02:30.379Z,95755.66
2023-02-25T00:04:35.764Z,95759.06
2023-02-25T00:06:39.833Z,95761.69
2023-02-25T00:08:44.863Z,95769.69
2023-02-25T00:10:59.983Z,95772.31
2023-02-25T00:13:17.441Z,95773.09
2023-02-25T00:15:21.960Z,95780.31
2023-02-25T00:17:26.086Z,95781.31
2023-02-25T00:19:30.134Z,95782.13
2023-02-25T00:21:35.577Z,95782.28
2023-02-25T00:23:39.524Z,95784.09
2023-02-25T00:25:43.592Z,95789.31
2023-02-25T00:27:47.557Z,95791.94
2023-02-25T00:29:53.289Z,95790.34
2023-02-25T00:31:57.618Z,95790.13
2023-02-25T00:34:01.862Z,95791.94
2023-02-25T00:36:09.979Z,95789.50
2023-02-25T00:38:16.338Z,95789.50
2023-02-25T00:40:22.860Z,95780.88
2023-02-25T00:42:26.941Z,95788.69
2023-02-25T00:44:31.252Z,95795.72
2023-02-25T00:46:36.230Z,95797.53
2023-02-25T00:48:40.642Z,95802.75
2023-02-25T00:50:44.692Z,95800.31
2023-02-25T00:52:48.656Z,95800.16
2023-02-25T00:54:54.047Z,95793.28
2023-02-25T00:56:58.030Z,95793.28
2023-02-25T00:59:02.033Z,95791.50
2023-02-25T01:01:06.955Z,95790.84
2023-02-25T01:03:11.021Z,95784.81
2023-02-25T01:05:15.521Z,95792.63
2023-02-25T01:07:20.897Z,95784.00
2023-02-25T01:09:25.082Z,95785.81
2023-02-25T01:11:31.918Z,95778.78
2023-02-25T01:13:36.562Z,95787.44
2023-02-25T01:15:40.722Z,95787.63
2023-02-25T01:17:44.765Z,95779.97
2023-02-25T01:19:48.949Z,95776.38
2023-02-25T01:21:55.105Z,95778.97
2023-02-25T01:24:00.951Z,95772.94
2023-02-25T01:26:06.045Z,95772.16
2023-02-25T01:28:11.523Z,95771.34
2023-02-25T01:30:16.064Z,95769.53
2023-02-25T01:32:20.528Z,95765.31
2023-02-25T01:34:24.774Z,95769.53
2023-02-25T01:36:28.905Z,95778.34
2023-02-25T01:38:34.464Z,95778.34
2023-02-25T01:40:39.124Z,95780.97
2023-02-25T01:42:43.089Z,95786.19
2023-02-25T01:45:30.273Z,95796.63
2023-02-25T01:47:37.209Z,95797.63
2023-02-25T01:49:42.720Z,95794.22
2023-02-25T01:51:49.821Z,95805.44
2023-02-25T01:53:53.898Z,95806.41
2023-02-25T01:55:58.332Z,95799.59
2023-02-25T01:58:02.335Z,95810.22
2023-02-25T02:00:12.318Z,95813.63
2023-02-25T02:02:19.178Z,95809.25
2023-02-25T02:04:23.210Z,95817.06
2023-02-25T02:06:30.115Z,95825.06
2023-02-25T02:08:34.504Z,95816.44
2023-02-25T02:10:38.489Z,95817.25
2023-02-25T02:12:43.759Z,95825.06
2023-02-25T02:14:47.742Z,95817.25
2023-02-25T02:17:08.579Z,95824.25
2023-02-25T02:19:22.617Z,95814.00
2023-02-25T02:21:54.673Z,95814.81
2023-02-25T02:24:30.623Z,95803.56
2023-02-25T02:26:50.262Z,95797.56
2023-02-25T02:29:33.838Z,95786.28
2023-02-25T02:31:52.444Z,95764.63
2023-02-25T02:34:03.312Z,95770.84
2023-02-25T02:36:09.233Z,95765.63
2023-02-25T02:38:15.564Z,95782.06
2023-02-25T02:40:42.248Z,95784.69
2023-02-25T02:42:54.638Z,95781.28
2023-02-25T02:45:02.915Z,95783.09
2023-02-25T02:47:11.088Z,95784.06
2023-02-25T02:49:18.346Z,95791.88
2023-02-25T02:51:25.750Z,95793.53
2023-02-25T02:53:33.009Z,95807.38
2023-02-25T02:55:41.151Z,95811.16
2023-02-25T02:57:45.216Z,95814.56
2023-02-25T02:59:52.691Z,95825.00
2023-02-25T03:01:59.446Z,95825.78
2023-02-25T03:04:06.740Z,95830.22
2023-02-25T03:06:12.400Z,95828.56
2023-02-25T03:08:19.061Z,95823.38
2023-02-25T03:10:24.389Z,95825.97
2023-02-25T03:12:28.582Z,95826.97
2023-02-25T03:14:32.762Z,95834.63
2023-02-25T03:16:39.316Z,95826.81
2023-02-25T03:18:45.221Z,95832.03
2023-02-25T03:20:51.281Z,95835.44
2023-02-25T03:22:57.522Z,95832.81
2023-02-25T03:25:06.152Z,95833.00
2023-02-25T03:27:27.675Z,95833.16
2023-02-25T03:29:36.248Z,95840.03
2023-02-25T03:31:43.413Z,95837.41
2023-02-25T03:33:49.936Z,95844.44
2023-02-25T03:35:55.729Z,95851.44
2023-02-25T03:38:05.712Z,95853.88
2023-02-25T03:40:13.779Z,95853.88
2023-02-25T03:42:21.099Z,95854.66
2023-02-25T03:44:27.676Z,95852.06
2023-02-25T03:46:31.909Z,95846.03
2023-02-25T03:48:36.508Z,95852.88
2023-02-25T03:50:45.735Z,95853.88
2023-02-25T03:52:51.678Z,95855.50
2023-02-25T03:55:29.264Z,95859.06
2023-02-25T03:57:37.875Z,95855.66
2023-02-25T03:59:41.855Z,95867.91
2023-02-25T04:01:48.254Z,95883.56
2023-02-25T04:03:52.246Z,95886.16
2023-02-25T04:05:57.135Z,95883.56
2023-02-25T04:08:03.460Z,95875.72
2023-02-25T04:10:13.177Z,95882.56
2023-02-25T04:12:17.178Z,95881.75
2023-02-25T04:14:21.818Z,95877.34
2023-02-25T04:16:26.437Z,95873.94
2023-02-25T04:18:32.861Z,95890.38
2023-02-25T04:20:37.320Z,95885.16
2023-02-25T04:22:41.403Z,95882.72
2023-02-25T04:24:47.098Z,95887.78
2023-02-25T04:26:58.471Z,95883.34
2023-02-25T04:29:02.565Z,95885.16
2023-02-25T04:31:07.200Z,95885.97
2023-02-25T04:33:11.749Z,95888.78
2023-02-25T04:35:15.871Z,95889.56
2023-02-25T04:37:20.236Z,95876.72
2023-02-25T04:39:24.260Z,95868.72
2023-02-25T04:41:31.837Z,95868.72
2023-02-25T04:43:35.922Z,95880.13
2023-02-25T04:45:39.896Z,95880.94
2023-02-25T04:47:44.117Z,95884.19
2023-02-25T04:49:48.120Z,95886.97
2023-02-25T04:51:52.489Z,95885.16
2023-02-25T04:53:56.514Z,95873.75
2023-02-25T04:56:04.274Z,95883.34
2023-02-25T04:58:09.649Z,95891.19
2023-02-25T05:00:19.151Z,95890.22
2023-02-25T05:02:23.177Z,95896.22
2023-02-25T05:04:27.345Z,95896.22
2023-02-25T05:06:31.461Z,95896.06
2023-02-25T05:08:35.807Z,95896.22
2023-02-25T05:10:39.829Z,95896.22
2023-02-25T05:12:43.873Z,95886.78
2023-02-25T05:14:49.224Z,95893.44
2023-02-25T05:16:53.266Z,95890.84
2023-02-25T05:18:58.086Z,95888.22
2023-02-25T05:21:02.548Z,95894.25
2023-02-25T05:23:06.589Z,95898.47
2023-02-25T05:25:11.194Z,95899.28
2023-02-25T05:27:15.370Z,95896.84
2023-02-25T05:29:19.544Z,95887.84
2023-02-25T05:31:25.970Z,95894.69
2023-02-25T05:33:30.366Z,95886.88
2023-02-25T05:35:34.374Z,95900.88
2023-02-25T05:37:39.440Z,95900.88
2023-02-25T05:39:43.698Z,95897.31
2023-02-25T05:41:48.913Z,95892.88
2023-02-25T05:43:52.937Z,95890.28
2023-02-25T05:45:57.534Z,95889.47
2023-02-25T05:48:03.330Z,95882.44
2023-02-25T05:50:08.047Z,95882.44
2023-02-25T05:52:12.141Z,95893.69
2023-02-25T05:54:16.187Z,95897.09
2023-02-25T05:56:22.329Z,95898.72
2023-02-25T05:58:26.756Z,95895.31
2023-02-25T06:00:30.901Z,95901.34
2023-02-25T06:02:35.367Z,95901.34
2023-02-25T06:04:40.922Z,95892.72
2023-02-25T06:06:51.854Z,95888.13
2023-02-25T06:08:55.917Z,95901.16
2023-02-25T06:11:00.427Z,95901.97
2023-02-25T06:13:04.454Z,95907.19
2023-02-25T06:15:09.809Z,95901.81
2023-02-25T06:17:14.262Z,95904.41
2023-02-25T06:19:18.325Z,95908.00
2023-02-25T06:21:23.730Z,95911.22
2023-02-25T06:23:27.914Z,95906.81
2023-02-25T06:25:32.054Z,95895.56
2023-02-25T06:27:36.149Z,95895.41
2023-02-25T06:29:41.660Z,95905.22
2023-02-25T06:31:45.976Z,95906.81
2023-02-25T06:33:50.741Z,95907.66
2023-02-25T06:35:55.178Z,95911.06
2023-02-25T06:38:01.318Z,95918.69
2023-02-25T06:40:07.615Z,95921.94
2023-02-25T06:42:11.726Z,95918.53
2023-02-25T06:44:15.931Z,95920.34
2023-02-25T06:46:21.534Z,95919.53
2023-02-25T06:48:26.391Z,95918.34
2023-02-25T06:50:30.368Z,95920.97
2023-02-25T06:52:34.505Z,95923.56
2023-02-25T06:54:39.873Z,95928.97
2023-02-25T06:56:43.947Z,95923.75
2023-02-25T06:58:48.001Z,95927.16
2023-02-25T07:00:52.208Z,95928.00
2023-02-25T07:02:56.183Z,95923.75
2023-02-25T07:05:01.293Z,95930.41
2023-02-25T07:07:05.357Z,95928.63
2023-02-25T07:09:09.723Z,95930.59
2023-02-25T07:11:25.896Z,95926.00
2023-02-25T07:13:30.306Z,95935.44
2023-02-25T07:15:34.496Z,95933.00
2023-02-25T07:17:38.562Z,95925.00
2023-02-25T07:19:42.556Z,95932.84
2023-02-25T07:21:46.609Z,95926.00
2023-02-25T07:23:50.853Z,95933.84
2023-02-25T07:25:54.953Z,95924.03
2023-02-25T07:28:00.304Z,95927.91
2023-02-25T07:30:05.594Z,95918.25
2023-02-25T07:32:09.960Z,95920.06
2023-02-25T07:34:14.638Z,95932.09
2023-02-25T07:36:18.760Z,95932.09
2023-02-25T07:38:23.002Z,95928.50
2023-02-25T07:40:26.996Z,95936.53
2023-02-25T07:42:31.048Z,95938.13
2023-02-25T07:44:38.291Z,95931.94
2023-02-25T07:46:42.427Z,95935.34
2023-02-25T07:48:46.392Z,95941.38
2023-02-25T07:50:50.784Z,95935.97
2023-02-25T07:52:54.746Z,95941.53
2023-02-25T07:54:58.734Z,95940.38
2023-02-25T07:57:02.735Z,95943.63
2023-02-25T07:59:06.797Z,95942.78
2023-02-25T08:01:12.646Z,95948.22
2023-02-25T08:03:16.642Z,95938.75
2023-02-25T08:05:21.898Z,95940.56
2023-02-25T08:07:26.747Z,95941.03
2023-02-25T08:09:31.729Z,95932.97
2023-02-25T08:11:35.791Z,95918.31
2023-02-25T08:13:39.975Z,95917.53
2023-02-25T08:15:44.192Z,95919.75
2023-02-25T08:17:52.089Z,95912.94
2023-02-25T08:19:56.100Z,95910.31
2023-02-25T08:22:00.293Z,95912.72
2023-02-25T08:24:04.473Z,95913.56
2023-02-25T08:26:09.699Z,95915.00
2023-02-25T08:28:13.719Z,95911.38
2023-02-25T08:30:19.013Z,95913.00
2023-02-25T08:32:25.291Z,95903.81
2023-02-25T08:34:30.680Z,95906.22
2023-02-25T08:36:36.123Z,95905.88
2023-02-25T08:38:40.347Z,95903.88
2023-02-25T08:40:45.173Z,95902.25
2023-02-25T08:42:49.124Z,95899.00
2023-02-25T08:44:53.183Z,95903.06
2023-02-25T08:46:57.564Z,95908.28
2023-02-25T08:49:01.807Z,95910.69
2023-02-25T08:51:09.078Z,95920.53
2023-02-25T08:53:13.161Z,95918.75
2023-02-25T08:55:18.127Z,95923.97
2023-02-25T08:57:22.161Z,95915.13
2023-02-25T08:59:26.186Z,95922.50
2023-02-25T09:01:44.341Z,95919.72
2023-02-25T09:03:52.180Z,95922.31
2023-02-25T09:05:56.734Z,95921.69
2023-02-25T09:08:04.326Z,95920.91
2023-02-25T09:10:10.172Z,95919.28
2023-02-25T09:12:14.163Z,95915.69
2023-02-25T09:14:18.381Z,95917.97
2023-02-25T09:16:22.413Z,95919.91
2023-02-25T09:18:26.605Z,95912.59
2023-02-25T09:20:30.568Z,95910.78
2023-02-25T09:22:34.691Z,95912.41
2023-02-25T09:24:40.039Z,95911.25
2023-02-25T09:26:44.056Z,95914.09
2023-02-25T09:28:48.723Z,95915.84
2023-02-25T09:30:52.843Z,95913.94
2023-02-25T09:32:56.964Z,95920.44
2023-02-25T09:35:06.456Z,95917.81
2023-02-25T09:37:12.450Z,95894.16
2023-02-25T09:39:17.085Z,95888.47
2023-02-25T09:41:29.729Z,95900.25
2023-02-25T09:43:39.621Z,95898.41
2023-02-25T09:45:47.510Z,95891.34
2023-02-25T09:47:54.999Z,95892.31
2023-02-25T09:50:00.451Z,95894.75
2023-02-25T09:52:08.025Z,95904.56
2023-02-25T09:54:19.646Z,95907.81
2023-02-25T09:56:25.968Z,95929.38
2023-02-25T09:58:34.165Z,95928.94
2023-02-25T10:00:41.796Z,95919.91
2023-02-25T10:02:49.159Z,95922.09
2023-02-25T10:05:01.352Z,95927.44
2023-02-25T10:07:10.192Z,95921.22
2023-02-25T10:09:22.040Z,95914.56
2023-02-25T10:11:54.052Z,95919.44
2023-02-25T10:14:05.562Z,95918.59
2023-02-25T10:16:24.588Z,95915.00
2023-02-25T10:18:46.092Z,95921.78
2023-02-25T10:20:56.561Z,95926.81
2023-02-25T10:23:02.917Z,95916.16
2023-02-25T10:25:12.755Z,95908.72
2023-02-25T10:27:22.599Z,95910.97
2023-02-25T10:29:29.689Z,95903.94
2023-02-25T10:31:34.503Z,95909.84
2023-02-25T10:33:40.247Z,95907.69
2023-02-25T10:35:44.231Z,95910.91
2023-02-25T10:37:48.196Z,95904.25
2023-02-25T10:39:52.450Z,95896.78
2023-02-25T10:41:56.474Z,95898.22
2023-02-25T10:44:01.844Z,95898.47
2023-02-25T10:46:15.300Z,95897.34
2023-02-25T10:48:22.830Z,95896.59
2023-02-25T10:50:42.714Z,95897.53
2023-02-25T10:52:58.853Z,95897.78
2023-02-25T10:55:03.129Z,95895.81
2023-02-25T10:57:09.775Z,95903.56
2023-02-25T10:59:31.256Z,95896.22
2023-02-25T11:01:37.707Z,95900.94
2023-02-25T11:03:55.495Z,95894.03
2023-02-25T11:06:15.048Z,95888.81
2023-02-25T11:08:27.853Z,95884.28
2023-02-25T11:10:36.326Z,95894.00
2023-02-25T11:12:44.610Z,95893.56
2023-02-25T11:14:49.959Z,95881.81
2023-02-25T11:16:53.951Z,95882.66
2023-02-25T11:18:59.996Z,95888.66
2023-02-25T11:21:07.180Z,95886.09
2023-02-25T11:23:15.437Z,95877.31
2023-02-25T11:25:20.789Z,95883.38
2023-02-25T11:27:31.788Z,95884.16
2023-02-25T11:29:38.231Z,95874.66
2023-02-25T11:31:43.805Z,95861.06
2023-02-25T11:33:52.199Z,95884.91
2023-02-25T11:35:57.037Z,95858.00
2023-02-25T11:38:01.114Z,95868.00
2023-02-25T11:40:20.754Z,95858.66
2023-02-25T11:42:27.038Z,95857.06
2023-02-25T11:44:32.323Z,95854.25
2023-02-25T11:46:36.426Z,95844.19
2023-02-25T11:48:50.480Z,95859.03
2023-02-25T11:51:02.109Z,95850.81
2023-02-25T11:53:10.117Z,95854.38
2023-02-25T11:55:26.118Z,95854.94
2023-02-25T11:57:36.064Z,95857.25
2023-02-25T11:59:42.752Z,95862.22
2023-02-25T12:02:03.214Z,95856.63
2023-02-25T12:04:28.094Z,95855.44
2023-02-25T12:06:43.033Z,95850.06
2023-02-25T12:09:10.627Z,95853.03
2023-02-25T12:12:15.665Z,95844.41
2023-02-25T12:15:13.046Z,95843.00
2023-02-25T12:18:19.451Z,95839.09
2023-02-25T12:21:12.709Z,95845.81
2023-02-25T12:23:45.708Z,95832.41
2023-02-25T12:25:52.338Z,95831.47
2023-02-25T12:28:17.665Z,95836.00
2023-02-25T12:30:52.445Z,95827.53
2023-02-25T12:33:04.520Z,95822.09
2023-02-25T12:35:33.599Z,95822.44
2023-02-25T12:38:24.686Z,95833.47
2023-02-25T12:40:44.092Z,95830.06
2023-02-25T12:42:59.106Z,95834.47
2023-02-25T12:45:21.525Z,95845.59
2023-02-25T12:47:27.132Z,95850.81
2023-02-25T12:49:55.972Z,95844.63
2023-02-25T12:52:17.633Z,95848.56
2023-02-25T12:54:35.963Z,95850.94
2023-02-25T12:57:03.814Z,95859.97
2023-02-25T12:59:33.764Z,95856.19
2023-02-25T13:01:55.525Z,95847.81
2023-02-25T13:04:35.503Z,95846.78
2023-02-25T13:07:22.733Z,95857.84
2023-02-25T13:09:45.160Z,95854.00
2023-02-25T13:12:11.370Z,95858.22
2023-02-25T13:14:33.570Z,95856.16
2023-02-25T13:16:50.355Z,95853.16
2023-02-25T13:19:12.464Z,95853.56
2023-02-25T13:21:30.847Z,95840.59
2023-02-25T13:23:56.535Z,95847.03
2023-02-25T13:26:15.628Z,95836.00
2023-02-25T13:28:30.624Z,95840.69
2023-02-25T13:30:39.341Z,95847.94
2023-02-25T13:32:48.488Z,95850.63
2023-02-25T13:35:06.945Z,95856.28
2023-02-25T13:37:40.970Z,95857.78
2023-02-25T13:40:20.450Z,95852.13
2023-02-25T13:43:04.633Z,95851.78
2023-02-25T13:45:31.622Z,95856.41
2023-02-25T13:48:02.629Z,95850.56
2023-02-25T13:50:27.220Z,95856.16
2023-02-25T13:52:36.303Z,95861.69
2023-02-25T13:55:07.298Z,95858.03
2023-02-25T13:57:21.043Z,95864.25
2023-02-25T13:59:44.779Z,95862.25
2023-02-25T14:02:04.873Z,95871.84
2023-02-25T14:04:56.825Z,95871.63
2023-02-25T14:07:39.912Z,95870.53
2023-02-25T14:09:47.177Z,95875.88
2023-02-25T14:12:11.629Z,95890.00
2023-02-25T14:14:39.374Z,95884.22
2023-02-25T14:16:53.326Z,95884.53
2023-02-25T14:19:10.634Z,95873.09
2023-02-25T14:21:35.144Z,95879.16
2023-02-25T14:23:46.675Z,95882.41
2023-02-25T14:26:24.589Z,95877.16
2023-02-25T14:28:40.738Z,95875.66
2023-02-25T14:30:56.202Z,95873.78
2023-02-25T14:33:14.186Z,95872.38
2023-02-25T14:35:35.850Z,95877.25
2023-02-25T14:37:44.526Z,95874.59
2023-02-25T14:40:02.044Z,95876.94
2023-02-25T14:42:21.904Z,95875.88
2023-02-25T14:44:30.698Z,95873.53
2023-02-25T14:46:40.292Z,95866.09
2023-02-25T14:48:48.609Z,95870.13
2023-02-25T14:50:55.090Z,95881.06
2023-02-25T14:53:35.021Z,95872.25
2023-02-25T14:55:54.543Z,95884.13
2023-02-25T14:58:37.433Z,95884.66
2023-02-25T15:01:17.671Z,95886.91
2023-02-25T15:03:48.307Z,95890.94
2023-02-25T15:06:04.551Z,95884.56
2023-02-25T15:08:49.732Z,95888.63
2023-02-25T15:11:08.354Z,95882.97
2023-02-25T15:13:51.621Z,95881.72
2023-02-25T15:16:41.144Z,95879.34
2023-02-25T15:19:51.929Z,95884.47
2023-02-25T15:22:23.712Z,95886.91
2023-02-25T15:24:38.776Z,95890.16
2023-02-25T15:26:45.477Z,95875.88
2023-02-25T15:28:50.488Z,95891.56
2023-02-25T15:31:28.587Z,95890.38
2023-02-25T15:33:35.791Z,95882.91
2023-02-25T15:35:58.385Z,95878.38
2023-02-25T15:38:08.963Z,95888.50
2023-02-25T15:40:49.014Z,95889.81
2023-02-25T15:42:54.008Z,95886.78
2023-02-25T15:44:58.795Z,95885.81
2023-02-25T15:47:29.200Z,95883.81
2023-02-25T15:49:35.424Z,95886.16
2023-02-25T15:51:44.455Z,95887.34
2023-02-25T15:53:50.736Z,95889.75
2023-02-25T15:55:55.720Z,95898.59
2023-02-25T15:57:59.693Z,95892.84
2023-02-25T16:00:04.958Z,95891.38
2023-02-25T16:02:40.733Z,95898.03
2023-02-25T16:04:48.669Z,95896.44
2023-02-25T16:06:52.653Z,95899.63
2023-02-25T16:09:08.014Z,95902.44
2023-02-25T16:11:24.277Z,95909.09
2023-02-25T16:13:31.110Z,95912.09
2023-02-25T16:15:39.451Z,95909.53
2023-02-25T16:17:44.271Z,95911.63
2023-02-25T16:19:51.730Z,95917.69
2023-02-25T16:21:58.400Z,95912.78
2023-02-25T16:24:04.413Z,95910.25
2023-02-25T16:26:15.682Z,95912.84
2023-02-25T16:28:24.865Z,95919.88
2023-02-25T16:30:34.303Z,95917.50
2023-02-25T16:32:44.465Z,95922.59
2023-02-25T16:34:51.468Z,95925.78
2023-02-25T16:37:03.040Z,95923.81
2023-02-25T16:39:12.560Z,95926.47
2023-02-25T16:41:16.828Z,95924.47
2023-02-25T16:43:24.577Z,95923.81
2023-02-25T16:45:30.441Z,95934.31
2023-02-25T16:47:37.316Z,95923.41
2023-02-25T16:49:41.818Z,95930.81
2023-02-25T16:51:46.122Z,95937.41
2023-02-25T16:53:54.851Z,95922.41
2023-02-25T16:56:00.682Z,95904.72
2023-02-25T16:58:07.608Z,95908.91
2023-02-25T17:00:17.571Z,95912.16
2023-02-25T17:02:24.988Z,95908.44
2023-02-25T17:04:30.918Z,95912.94
2023-02-25T17:06:35.276Z,95916.91
2023-02-25T17:08:39.712Z,95916.53
2023-02-25T17:10:46.417Z,95939.66
2023-02-25T17:12:51.737Z,95948.00
2023-02-25T17:14:55.732Z,95949.50
2023-02-25T17:16:59.796Z,95953.53
2023-02-25T17:19:06.261Z,95962.03
2023-02-25T17:21:19.099Z,95970.94
2023-02-25T17:23:24.464Z,95973.50
2023-02-25T17:25:33.233Z,95970.38
2023-02-25T17:27:37.226Z,95971.44
2023-02-25T17:29:43.224Z,95973.72
2023-02-25T17:31:48.630Z,95981.03
2023-02-25T17:33:54.109Z,95984.31
2023-02-25T17:36:00.644Z,95987.97
2023-02-25T17:38:04.609Z,95985.97
2023-02-25T17:40:10.382Z,95986.69
2023-02-25T17:42:38.920Z,95986.56
2023-02-25T17:44:47.281Z,95998.00
2023-02-25T17:46:53.877Z,96005.34
2023-02-25T17:48:59.021Z,96011.59
2023-02-25T17:51:05.872Z,96012.13
2023-02-25T17:53:26.194Z,96010.31
2023-02-25T17:55:32.464Z,96010.88
2023-02-25T17:57:36.449Z,96013.94
2023-02-25T17:59:41.443Z,96011.91
2023-02-25T18:01:49.161Z,96015.31
2023-02-25T18:03:53.871Z,96019.91
2023-02-25T18:05:59.014Z,96014.25
2023-02-25T18:08:20.364Z,96014.25
2023-02-25T18:11:01.635Z,96017.44
2023-02-25T18:13:06.076Z,96022.19
2023-02-25T18:15:18.118Z,96018.66
2023-02-25T18:17:32.331Z,96023.03
2023-02-25T18:19:39.701Z,96030.09
2023-02-25T18:21:43.800Z,96029.25
2023-02-25T18:23:48.158Z,96024.00
2023-02-25T18:26:12.824Z,96032.97
2023-02-25T18:28:18.284Z,96030.91
2023-02-25T18:30:24.470Z,96038.16
2023-02-25T18:32:29.814Z,96031.50
2023-02-25T18:34:34.060Z,96021.88
2023-02-25T18:36:38.353Z,96024.41
2023-02-25T18:38:43.740Z,96024.97
2023-02-25T18:40:48.042Z,96027.22
2023-02-25T18:42:52.103Z,96027.34
2023-02-25T18:44:56.086Z,96034.97
2023-02-25T18:47:00.222Z,96035.88
2023-02-25T18:49:05.576Z,96028.25
2023-02-25T18:51:13.437Z,96030.03
2023-02-25T18:53:19.276Z,96031.09
2023-02-25T18:55:25.063Z,96024.28
2023-02-25T18:57:29.381Z,96030.72
2023-02-25T18:59:33.970Z,96033.91
2023-02-25T19:01:38.102Z,96034.22
2023-02-25T19:03:43.748Z,96033.84
2023-02-25T19:05:49.133Z,96030.47
2023-02-25T19:07:53.255Z,96034.91
2023-02-25T19:09:57.277Z,96036.16
2023-02-25T19:12:01.400Z,96026.09
2023-02-25T19:14:05.835Z,96031.59
2023-02-25T19:16:09.934Z,96031.41
2023-02-25T19:18:14.508Z,96023.44
2023-02-25T19:20:20.305Z,96022.41
2023-02-25T19:22:25.643Z,96022.94
2023-02-25T19:24:29.713Z,96026.94
2023-02-25T19:26:33.769Z,96019.28
2023-02-25T19:28:37.857Z,96026.06
2023-02-25T19:30:43.560Z,96020.63
2023-02-25T19:32:47.575Z,96027.72
2023-02-25T19:34:51.605Z,96017.22
2023-02-25T19:36:56.123Z,96022.81
2023-02-25T19:39:01.468Z,96023.06
2023-02-25T19:41:06.423Z,96026.53
2023-02-25T19:43:10.441Z,96021.25
2023-02-25T19:45:16.458Z,96028.94
2023-02-25T19:47:20.628Z,96031.72
2023-02-25T19:49:24.863Z,96023.06
2023-02-25T19:51:28.815Z,96023.31
2023-02-25T19:53:32.948Z,96026.09
2023-02-25T19:55:39.036Z,96022.25
2023-02-25T19:57:44.212Z,96027.91
2023-02-25T19:59:48.258Z,96027.47
2023-02-25T20:01:52.310Z,96028.88
2023-02-25T20:03:56.411Z,96036.72
2023-02-25T20:06:06.872Z,96033.38
2023-02-25T20:08:10.879Z,96036.69
2023-02-25T20:10:15.386Z,96037.34
2023-02-25T20:12:20.830Z,96038.41
2023-02-25T20:14:27.916Z,96036.63
2023-02-25T20:16:32.074Z,96042.03
2023-02-25T20:18:36.529Z,96044.53
2023-02-25T20:20:42.771Z,96044.59
2023-02-25T20:22:46.759Z,96049.19
2023-02-25T20:24:50.927Z,96045.28
2023-02-25T20:26:54.959Z,96044.59
2023-02-25T20:29:00.343Z,96045.03
2023-02-25T20:31:06.132Z,96044.59
2023-02-25T20:33:10.138Z,96042.59
2023-02-25T20:35:20.317Z,96046.97
2023-02-25T20:37:25.604Z,96049.81
2023-02-25T20:39:43.933Z,96047.28
2023-02-25T20:41:48.238Z,96046.66
2023-02-25T20:43:52.494Z,96048.25
2023-02-25T20:45:58.583Z,96048.56
2023-02-25T20:48:03.287Z,96050.00
2023-02-25T20:50:09.486Z,96053.00
2023-02-25T20:52:15.728Z,96041.66
2023-02-25T20:54:20.042Z,96053.94
2023-02-25T20:56:25.538Z,96053.97
2023-02-25T20:58:29.734Z,96046.84
2023-02-25T21:00:34.818Z,96057.97
2023-02-25T21:02:40.175Z,96053.94
2023-02-25T21:04:44.615Z,96052.63
2023-02-25T21:06:48.610Z,96061.16
2023-02-25T21:08:52.802Z,96055.66
2023-02-25T21:10:58.853Z,96049.44
2023-02-25T21:13:02.886Z,96056.94
2023-02-25T21:15:08.391Z,96053.22
2023-02-25T21:17:13.814Z,96053.00
2023-02-25T21:19:19.655Z,96057.22
2023-02-25T21:21:23.718Z,96063.22
2023-02-25T21:23:27.997Z,96070.19
2023-02-25T21:25:32.269Z,96061.16
2023-02-25T21:27:36.280Z,96065.63
2023-02-25T21:29:40.326Z,96064.50
2023-02-25T21:31:45.453Z,96066.25
2023-02-25T21:33:49.656Z,96068.25
2023-02-25T21:35:55.255Z,96066.00
2023-02-25T21:37:59.290Z,96064.34
2023-02-25T21:40:04.102Z,96061.47
2023-02-25T21:42:08.416Z,96062.72
2023-02-25T21:44:12.559Z,96060.53
2023-02-25T21:46:16.885Z,96059.91
2023-02-25T21:48:21.257Z,96056.88
2023-02-25T21:50:26.989Z,96057.44
2023-02-25T21:52:32.750Z,96067.09
2023-02-25T21:54:36.792Z,96067.66
2023-02-25T21:56:41.639Z,96062.03
2023-02-25T21:58:45.832Z,96066.84
2023-02-25T22:00:49.923Z,96067.66
2023-02-25T22:02:54.367Z,96061.63
2023-02-25T22:04:58.358Z,96063.69
2023-02-25T22:07:02.411Z,96068.09
2023-02-25T22:09:07.865Z,96066.47
2023-02-25T22:11:15.721Z,96072.09
2023-02-25T22:13:19.783Z,96070.16
2023-02-25T22:15:24.204Z,96068.34
2023-02-25T22:17:28.616Z,96053.84
2023-02-25T22:19:32.789Z,96049.03
2023-02-25T22:21:37.235Z,96055.50
2023-02-25T22:23:43.287Z,96047.22
2023-02-25T22:25:48.942Z,96054.88
2023-02-25T22:27:53.082Z,96048.03
2023-02-25T22:29:57.181Z,96047.66
2023-02-25T22:32:01.409Z,96042.84
2023-02-25T22:34:08.183Z,96044.84
2023-02-25T22:36:12.870Z,96053.31
2023-02-25T22:38:16.879Z,96042.69
2023-02-25T22:40:20.945Z,96039.03
2023-02-25T22:42:26.448Z,96044.41
2023-02-25T22:44:30.691Z,96048.03
2023-02-25T22:46:36.896Z,96048.84
2023-02-25T22:48:42.940Z,96051.22
2023-02-25T22:50:50.212Z,96067.31
2023-02-25T22:52:54.295Z,96075.16
2023-02-25T22:54:58.283Z,96071.56
2023-02-25T22:57:02.384Z,96076.41
2023-02-25T22:59:07.850Z,96078.78
2023-02-25T23:01:12.968Z,96081.41
2023-02-25T23:03:17.154Z,96082.22
2023-02-25T23:05:21.217Z,96087.63
2023-02-25T23:07:25.255Z,96093.47
2023-02-25T23:09:29.531Z,96093.88
2023-02-25T23:11:35.490Z,96091.25
2023-02-25T23:13:45.848Z,96092.06
2023-02-25T23:15:51.301Z,96096.94
2023-02-25T23:17:55.852Z,96106.56
2023-02-25T23:20:00.291Z,96101.81
2023-02-25T23:22:04.388Z,96099.22
2023-02-25T23:24:09.910Z,96104.09
2023-02-25T23:26:15.082Z,96101.47
2023-02-25T23:28:19.251Z,96107.69
2023-02-25T23:30:23.400Z,96111.09
2023-02-25T23:32:28.897Z,96110.88
2023-02-25T23:34:33.060Z,96130.97
2023-02-25T23:36:37.301Z,96103.19
2023-02-25T23:38:41.353Z,96093.06
2023-02-25T23:40:45.394Z,96096.97
2023-02-25T23:42:49.462Z,96100.31
2023-02-25T23:44:53.481Z,96096.19
2023-02-25T23:46:57.489Z,96090.19
2023-02-25T23:49:04.989Z,96117.63
2023-02-25T23:51:09.125Z,96120.41
2023-02-25T23:53:13.169Z,96112.28
2023-02-25T23:55:17.227Z,96115.03
2023-02-25T23:57:21.339Z,96116.47
2023-02-25T23:59:25.792Z,96109.94
